createdAt,value
2022-12-23T00:01:20.116Z,4.85
2022-12-23T00:03:47.785Z,4.61
2022-12-23T00:06:17.152Z,4.48
2022-12-23T00:08:47.167Z,4.48
2022-12-23T00:11:17.725Z,4.47
2022-12-23T00:14:04.471Z,4.36
2022-12-23T00:16:32.071Z,4.67
2022-12-23T00:18:59.428Z,4.84
2022-12-23T00:21:27.962Z,4.83
2022-12-23T00:24:04.787Z,4.67
2022-12-23T00:26:31.999Z,4.46
2022-12-23T00:28:59.507Z,4.33
2022-12-23T00:31:27.077Z,4.22
2022-12-23T00:33:56.453Z,4.28
2022-12-23T00:36:31.689Z,4.21
2022-12-23T00:39:19.032Z,4.01
2022-12-23T00:42:05.240Z,3.82
2022-12-23T00:44:32.885Z,3.64
2022-12-23T00:47:01.538Z,3.68
2022-12-23T00:49:43.779Z,3.72
2022-12-23T00:52:15.913Z,3.67
2022-12-23T00:54:43.362Z,3.82
2022-12-23T00:57:11.874Z,3.87
2022-12-23T00:59:39.199Z,3.86
2022-12-23T01:02:25.022Z,3.80
2022-12-23T01:05:13.017Z,3.62
2022-12-23T01:07:40.407Z,3.50
2022-12-23T01:10:10.185Z,3.30
2022-12-23T01:12:37.364Z,3.02
2022-12-23T01:15:05.199Z,2.78
2022-12-23T01:17:32.884Z,2.81
2022-12-23T01:20:01.333Z,2.76
2022-12-23T01:22:28.726Z,2.75
2022-12-23T01:24:56.221Z,2.67
2022-12-23T01:27:23.619Z,2.32
2022-12-23T01:29:52.076Z,2.47
2022-12-23T01:32:19.619Z,2.61
2022-12-23T01:34:47.120Z,2.47
2022-12-23T01:37:14.514Z,2.32
2022-12-23T01:39:41.864Z,2.20
2022-12-23T01:42:36.055Z,2.22
2022-12-23T01:45:13.870Z,1.94
2022-12-23T01:47:50.312Z,1.81
2022-12-23T01:50:31.005Z,1.94
2022-12-23T01:53:20.567Z,1.93
2022-12-23T01:55:56.459Z,1.83
2022-12-23T01:58:31.051Z,1.73
2022-12-23T02:01:22.891Z,1.64
2022-12-23T02:03:53.556Z,1.47
2022-12-23T02:06:46.847Z,1.50
2022-12-23T02:09:26.699Z,1.77
2022-12-23T02:12:33.807Z,2.25
2022-12-23T02:15:55.389Z,2.21
2022-12-23T02:18:40.241Z,2.11
2022-12-23T02:21:11.660Z,2.16
2022-12-23T02:23:53.526Z,2.14
2022-12-23T02:26:36.342Z,1.89
2022-12-23T02:29:09.752Z,1.61
2022-12-23T02:31:49.613Z,1.70
2022-12-23T02:34:26.844Z,1.92
2022-12-23T02:37:08.928Z,2.12
2022-12-23T02:39:55.313Z,2.21
2022-12-23T02:42:38.893Z,2.25
2022-12-23T02:45:10.401Z,2.29
2022-12-23T02:47:42.690Z,2.31
2022-12-23T02:50:26.475Z,2.38
2022-12-23T02:52:57.621Z,2.38
2022-12-23T02:55:33.161Z,2.38
2022-12-23T02:58:05.612Z,2.24
2022-12-23T03:00:34.261Z,2.36
2022-12-23T03:03:02.003Z,2.24
2022-12-23T03:05:45.341Z,2.22
2022-12-23T03:08:21.001Z,2.28
2022-12-23T03:11:05.574Z,2.13
2022-12-23T03:13:54.761Z,2.13
2022-12-23T03:16:42.242Z,2.10
2022-12-23T03:19:35.773Z,2.08
2022-12-23T03:22:29.322Z,2.18
2022-12-23T03:25:09.065Z,2.17
2022-12-23T03:27:47.285Z,2.07
2022-12-23T03:30:20.143Z,2.00
2022-12-23T03:33:19.010Z,1.93
2022-12-23T03:35:57.545Z,1.89
2022-12-23T03:38:27.036Z,1.85
2022-12-23T03:41:05.123Z,1.89
2022-12-23T03:43:50.957Z,1.92
2022-12-23T03:46:33.458Z,1.89
2022-12-23T03:49:06.382Z,1.86
2022-12-23T03:51:55.478Z,1.83
2022-12-23T03:54:33.112Z,1.81
2022-12-23T03:57:05.217Z,1.77
2022-12-23T03:59:36.284Z,1.75
2022-12-23T04:02:19.695Z,1.78
2022-12-23T04:05:10.039Z,1.86
2022-12-23T04:08:16.147Z,1.95
2022-12-23T04:10:44.777Z,2.02
2022-12-23T04:13:13.417Z,2.03
2022-12-23T04:15:42.370Z,2.13
2022-12-23T04:18:11.533Z,2.22
2022-12-23T04:20:45.113Z,2.34
2022-12-23T04:23:12.558Z,2.37
2022-12-23T04:25:39.998Z,2.52
2022-12-23T04:28:14.104Z,2.54
2022-12-23T04:30:41.628Z,2.61
2022-12-23T04:33:12.681Z,2.70
2022-12-23T04:35:40.287Z,2.81
2022-12-23T04:38:08.564Z,2.88
2022-12-23T04:40:37.203Z,2.98
2022-12-23T04:43:04.549Z,3.03
2022-12-23T04:45:33.541Z,3.10
2022-12-23T04:48:02.971Z,3.13
2022-12-23T04:50:30.531Z,3.11
2022-12-23T04:52:59.938Z,3.22
2022-12-23T04:55:27.543Z,3.32
2022-12-23T04:57:54.842Z,3.36
2022-12-23T05:00:23.529Z,3.43
2022-12-23T05:02:50.910Z,3.47
2022-12-23T05:05:18.280Z,3.52
2022-12-23T05:07:45.805Z,3.52
2022-12-23T05:10:16.733Z,3.56
2022-12-23T05:12:44.323Z,3.57
2022-12-23T05:15:11.831Z,3.60
2022-12-23T05:17:39.261Z,3.64
2022-12-23T05:20:09.281Z,3.68
2022-12-23T05:22:36.723Z,3.60
2022-12-23T05:25:05.503Z,3.63
2022-12-23T05:27:32.510Z,3.59
2022-12-23T05:30:00.109Z,3.57
2022-12-23T05:32:27.472Z,3.58
2022-12-23T05:34:54.963Z,3.37
2022-12-23T05:37:22.429Z,3.54
2022-12-23T05:39:49.901Z,3.58
2022-12-23T05:42:19.724Z,3.62
2022-12-23T05:44:48.434Z,3.60
2022-12-23T05:47:15.865Z,3.63
2022-12-23T05:49:43.324Z,3.57
2022-12-23T05:52:10.372Z,3.55
2022-12-23T05:54:37.736Z,3.51
2022-12-23T05:57:05.194Z,3.53
2022-12-23T05:59:32.761Z,3.50
2022-12-23T06:02:01.367Z,3.66
2022-12-23T06:04:34.865Z,3.58
2022-12-23T06:07:04.309Z,3.59
2022-12-23T06:09:31.777Z,3.64
2022-12-23T06:11:59.182Z,3.61
2022-12-23T06:14:28.984Z,3.68
2022-12-23T06:16:57.717Z,3.66
2022-12-23T06:19:25.936Z,3.64
2022-12-23T06:21:53.194Z,3.67
2022-12-23T06:24:20.582Z,3.68
2022-12-23T06:26:51.881Z,3.78
2022-12-23T06:29:22.233Z,3.84
2022-12-23T06:31:49.660Z,3.85
2022-12-23T06:34:18.317Z,3.84
2022-12-23T06:36:51.765Z,3.87
2022-12-23T06:39:19.033Z,3.84
2022-12-23T06:41:46.993Z,3.81
2022-12-23T06:44:21.389Z,3.83
2022-12-23T06:46:48.801Z,3.85
2022-12-23T06:49:16.279Z,3.86
2022-12-23T06:51:43.495Z,3.92
2022-12-23T06:54:12.362Z,3.89
2022-12-23T06:56:40.818Z,3.90
2022-12-23T06:59:09.202Z,3.92
2022-12-23T07:01:38.009Z,3.95
2022-12-23T07:04:05.724Z,3.97
2022-12-23T07:06:33.094Z,3.99
2022-12-23T07:09:00.529Z,4.01
2022-12-23T07:11:27.637Z,3.95
2022-12-23T07:13:54.954Z,4.00
2022-12-23T07:16:22.377Z,3.92
2022-12-23T07:18:51.751Z,3.99
2022-12-23T07:21:28.330Z,4.01
2022-12-23T07:23:57.570Z,4.00
2022-12-23T07:26:25.070Z,3.99
2022-12-23T07:28:52.399Z,4.03
2022-12-23T07:31:19.523Z,4.03
2022-12-23T07:33:46.876Z,4.07
2022-12-23T07:36:14.473Z,4.08
2022-12-23T07:38:41.731Z,4.11
2022-12-23T07:41:09.866Z,4.17
2022-12-23T07:43:37.108Z,4.23
2022-12-23T07:46:09.069Z,4.24
2022-12-23T07:48:37.753Z,4.30
2022-12-23T07:51:05.279Z,4.30
2022-12-23T07:53:36.123Z,4.41
2022-12-23T07:56:03.326Z,4.44
2022-12-23T07:58:32.687Z,4.50
2022-12-23T08:01:05.621Z,4.43
2022-12-23T08:03:32.836Z,4.54
2022-12-23T08:06:02.248Z,4.50
2022-12-23T08:08:29.966Z,4.55
2022-12-23T08:11:02.441Z,4.55
2022-12-23T08:13:29.759Z,4.58
2022-12-23T08:16:00.248Z,4.61
2022-12-23T08:18:29.985Z,4.59
2022-12-23T08:21:02.657Z,4.61
2022-12-23T08:23:31.516Z,4.63
2022-12-23T08:26:06.532Z,4.63
2022-12-23T08:28:35.227Z,4.63
2022-12-23T08:31:11.880Z,4.66
2022-12-23T08:33:40.184Z,4.69
2022-12-23T08:36:09.084Z,4.75
2022-12-23T08:38:37.256Z,4.77
2022-12-23T08:41:16.976Z,4.80
2022-12-23T08:43:44.651Z,4.82
2022-12-23T08:46:12.048Z,4.87
2022-12-23T08:48:43.719Z,4.89
2022-12-23T08:51:17.051Z,4.87
2022-12-23T08:53:44.845Z,4.85
2022-12-23T08:56:19.356Z,4.92
2022-12-23T08:58:48.534Z,4.97
2022-12-23T09:01:19.162Z,5.11
2022-12-23T09:03:46.797Z,5.11
2022-12-23T09:06:21.856Z,5.09
2022-12-23T09:08:52.947Z,5.20
2022-12-23T09:11:23.517Z,5.16
2022-12-23T09:13:51.122Z,5.32
2022-12-23T09:16:19.940Z,5.27
2022-12-23T09:18:48.366Z,5.29
2022-12-23T09:21:19.779Z,5.26
2022-12-23T09:23:48.038Z,5.27
2022-12-23T09:26:23.973Z,5.21
2022-12-23T09:28:59.188Z,5.21
2022-12-23T09:31:32.315Z,5.23
2022-12-23T09:34:04.041Z,5.21
2022-12-23T09:36:32.515Z,5.25
2022-12-23T09:39:00.095Z,5.23
2022-12-23T09:41:31.437Z,5.27
2022-12-23T09:44:07.395Z,5.35
2022-12-23T09:46:42.360Z,5.39
2022-12-23T09:49:13.159Z,5.42
2022-12-23T09:51:40.414Z,5.47
2022-12-23T09:54:16.869Z,5.48
2022-12-23T09:56:58.591Z,5.53
2022-12-23T09:59:39.070Z,5.55
2022-12-23T10:02:33.241Z,5.62
2022-12-23T10:05:29.190Z,5.65
2022-12-23T10:08:02.635Z,5.70
2022-12-23T10:10:32.852Z,5.69
2022-12-23T10:13:02.929Z,5.73
2022-12-23T10:15:41.297Z,5.78
2022-12-23T10:18:21.040Z,5.79
2022-12-23T10:21:15.631Z,5.80
2022-12-23T10:23:50.048Z,5.84
2022-12-23T10:26:36.302Z,5.91
2022-12-23T10:29:34.792Z,6.25
2022-12-23T10:32:29.342Z,6.49
2022-12-23T10:35:16.102Z,6.35
2022-12-23T10:38:04.726Z,6.32
2022-12-23T10:41:12.085Z,6.33
2022-12-23T10:43:58.615Z,6.42
2022-12-23T10:46:32.846Z,6.41
2022-12-23T10:49:17.238Z,6.47
2022-12-23T10:51:53.747Z,6.44
2022-12-23T10:54:40.152Z,6.20
2022-12-23T10:57:10.149Z,6.35
2022-12-23T10:59:41.217Z,6.23
2022-12-23T11:02:16.325Z,6.13
2022-12-23T11:04:51.367Z,6.14
2022-12-23T11:07:43.963Z,6.21
2022-12-23T11:10:23.518Z,6.27
2022-12-23T11:12:55.478Z,6.30
2022-12-23T11:15:28.402Z,6.27
2022-12-23T11:18:08.928Z,6.32
2022-12-23T11:20:42.169Z,6.34
2022-12-23T11:23:29.858Z,6.34
2022-12-23T11:26:07.474Z,6.41
2022-12-23T11:28:41.178Z,6.39
2022-12-23T11:31:16.393Z,6.44
2022-12-23T11:33:53.493Z,6.56
2022-12-23T11:36:31.460Z,6.53
2022-12-23T11:39:06.344Z,6.62
2022-12-23T11:41:51.771Z,6.54
2022-12-23T11:44:31.856Z,6.68
2022-12-23T11:47:33.049Z,6.64
2022-12-23T11:50:07.158Z,6.58
2022-12-23T11:52:39.182Z,6.67
2022-12-23T11:55:26.821Z,6.70
2022-12-23T11:57:58.839Z,6.64
2022-12-23T12:00:40.060Z,6.57
2022-12-23T12:03:26.933Z,6.64
2022-12-23T12:06:08.405Z,6.69
2022-12-23T12:08:39.680Z,6.77
2022-12-23T12:11:20.473Z,6.86
2022-12-23T12:14:00.323Z,7.01
2022-12-23T12:17:07.042Z,6.98
2022-12-23T12:19:49.225Z,7.05
2022-12-23T12:22:42.326Z,7.10
2022-12-23T12:25:56.642Z,7.17
2022-12-23T12:28:38.166Z,7.23
2022-12-23T12:31:31.841Z,7.32
2022-12-23T12:34:30.667Z,7.30
2022-12-23T12:37:19.285Z,7.27
2022-12-23T12:39:55.969Z,7.08
2022-12-23T12:42:43.240Z,7.43
2022-12-23T12:45:40.075Z,7.66
2022-12-23T12:48:37.768Z,7.78
2022-12-23T12:51:30.794Z,7.71
2022-12-23T12:54:31.203Z,7.82
2022-12-23T12:57:03.099Z,7.74
2022-12-23T12:59:37.984Z,7.79
2022-12-23T13:02:39.189Z,8.01
2022-12-23T13:05:35.605Z,7.90
2022-12-23T13:08:19.926Z,7.95
2022-12-23T13:10:55.250Z,8.52
2022-12-23T13:13:48.057Z,9.35
2022-12-23T13:16:40.412Z,9.41
2022-12-23T13:19:30.328Z,9.36
2022-12-23T13:22:23.483Z,10.00
2022-12-23T13:25:26.903Z,10.14
2022-12-23T13:28:34.144Z,9.74
2022-12-23T13:31:39.297Z,9.20
2022-12-23T13:34:25.733Z,8.84
2022-12-23T13:37:11.135Z,8.27
2022-12-23T13:39:57.892Z,7.99
2022-12-23T13:42:35.379Z,7.87
2022-12-23T13:45:18.567Z,7.68
2022-12-23T13:48:06.048Z,7.27
2022-12-23T13:50:48.694Z,7.13
2022-12-23T13:53:44.476Z,7.37
2022-12-23T13:56:21.943Z,7.37
2022-12-23T13:58:51.975Z,7.24
2022-12-23T14:01:56.201Z,7.19
2022-12-23T14:04:37.723Z,7.12
2022-12-23T14:07:21.170Z,7.14
2022-12-23T14:09:57.260Z,7.02
2022-12-23T14:12:31.097Z,7.18
2022-12-23T14:15:20.599Z,6.86
2022-12-23T14:18:13.521Z,6.78
2022-12-23T14:20:51.664Z,6.97
2022-12-23T14:24:02.568Z,6.83
2022-12-23T14:27:15.120Z,6.63
2022-12-23T14:30:14.420Z,6.72
2022-12-23T14:33:07.466Z,6.64
2022-12-23T14:35:42.161Z,6.58
2022-12-23T14:38:39.012Z,6.38
2022-12-23T14:41:48.259Z,6.37
2022-12-23T14:44:44.750Z,6.32
2022-12-23T14:47:29.081Z,6.26
2022-12-23T14:50:00.991Z,6.28
2022-12-23T14:53:00.388Z,6.53
2022-12-23T14:55:51.057Z,6.40
2022-12-23T14:58:22.599Z,6.36
2022-12-23T15:01:19.828Z,6.46
2022-12-23T15:04:01.318Z,6.49
2022-12-23T15:06:37.181Z,6.44
2022-12-23T15:09:08.384Z,6.46
2022-12-23T15:11:38.306Z,6.42
2022-12-23T15:14:45.533Z,6.35
2022-12-23T15:17:29.735Z,6.47
2022-12-23T15:20:26.615Z,6.32
2022-12-23T15:23:01.759Z,6.40
2022-12-23T15:25:36.452Z,6.28
2022-12-23T15:28:07.096Z,6.24
2022-12-23T15:30:51.377Z,6.20
2022-12-23T15:34:01.530Z,6.16
2022-12-23T15:36:20.795Z,6.22
2022-12-23T15:38:49.684Z,6.24
2022-12-23T15:41:23.482Z,6.36
2022-12-23T15:43:56.774Z,6.44
2022-12-23T15:46:30.447Z,6.34
2022-12-23T15:49:03.684Z,6.29
2022-12-23T15:52:06.382Z,6.23
2022-12-23T15:54:49.297Z,6.24
2022-12-23T15:57:22.605Z,6.21
2022-12-23T15:59:54.016Z,6.28
2022-12-23T16:03:00.476Z,6.33
2022-12-23T16:05:40.976Z,6.43
2022-12-23T16:08:37.059Z,6.48
2022-12-23T16:11:14.651Z,6.42
2022-12-23T16:14:23.812Z,6.42
2022-12-23T16:16:58.991Z,6.44
2022-12-23T16:19:42.569Z,6.42
2022-12-23T16:22:26.890Z,6.39
2022-12-23T16:24:57.897Z,6.37
2022-12-23T16:27:40.047Z,6.36
2022-12-23T16:30:22.766Z,6.39
2022-12-23T16:32:56.219Z,6.26
2022-12-23T16:35:43.246Z,6.25
2022-12-23T16:38:25.113Z,6.14
2022-12-23T16:40:58.163Z,6.15
2022-12-23T16:43:26.472Z,5.97
2022-12-23T16:45:58.938Z,6.08
2022-12-23T16:48:36.758Z,6.03
2022-12-23T16:51:13.333Z,5.96
2022-12-23T16:53:43.569Z,6.02
2022-12-23T16:56:22.506Z,5.98
2022-12-23T16:59:03.885Z,5.91
2022-12-23T17:01:40.097Z,5.91
2022-12-23T17:04:13.390Z,5.90
2022-12-23T17:06:45.726Z,5.89
2022-12-23T17:09:18.760Z,5.85
2022-12-23T17:11:51.843Z,5.88
2022-12-23T17:14:26.256Z,5.88
2022-12-23T17:16:57.954Z,5.86
2022-12-23T17:19:29.317Z,5.88
2022-12-23T17:22:04.660Z,5.96
2022-12-23T17:24:43.802Z,5.98
2022-12-23T17:27:22.623Z,5.98
2022-12-23T17:29:52.635Z,5.99
2022-12-23T17:32:21.569Z,5.86
2022-12-23T17:34:48.977Z,5.75
2022-12-23T17:37:22.852Z,5.74
2022-12-23T17:39:50.503Z,5.73
2022-12-23T17:42:25.607Z,5.73
2022-12-23T17:44:53.662Z,5.74
2022-12-23T17:47:22.925Z,5.76
2022-12-23T17:49:50.691Z,5.64
2022-12-23T17:52:23.627Z,5.76
2022-12-23T17:54:52.003Z,5.67
2022-12-23T17:57:27.153Z,5.88
2022-12-23T17:59:55.195Z,5.92
2022-12-23T18:02:35.627Z,5.79
2022-12-23T18:05:26.627Z,5.60
2022-12-23T18:07:55.117Z,5.51
2022-12-23T18:10:27.243Z,5.42
2022-12-23T18:13:00.202Z,5.44
2022-12-23T18:15:33.918Z,5.50
2022-12-23T18:18:01.213Z,5.67
2022-12-23T18:20:28.929Z,5.65
2022-12-23T18:22:59.529Z,5.59
2022-12-23T18:25:28.747Z,5.64
2022-12-23T18:27:56.171Z,5.75
2022-12-23T18:30:23.620Z,5.79
2022-12-23T18:32:51.118Z,5.68
2022-12-23T18:35:31.612Z,5.73
2022-12-23T18:37:59.983Z,5.68
2022-12-23T18:40:33.021Z,5.48
2022-12-23T18:43:01.361Z,5.42
2022-12-23T18:45:42.372Z,5.49
2022-12-23T18:48:10.703Z,5.34
2022-12-23T18:50:39.894Z,5.40
2022-12-23T18:53:19.637Z,5.38
2022-12-23T18:55:52.016Z,5.40
2022-12-23T18:58:21.209Z,5.34
2022-12-23T19:00:51.293Z,5.40
2022-12-23T19:03:24.556Z,5.42
2022-12-23T19:05:55.285Z,5.59
2022-12-23T19:08:27.157Z,5.68
2022-12-23T19:11:03.178Z,5.72
2022-12-23T19:13:30.756Z,5.65
2022-12-23T19:15:58.281Z,5.56
2022-12-23T19:18:31.850Z,5.51
2022-12-23T19:21:03.357Z,5.45
2022-12-23T19:23:30.837Z,5.32
2022-12-23T19:26:00.467Z,5.25
2022-12-23T19:28:27.739Z,5.24
2022-12-23T19:30:56.273Z,5.14
2022-12-23T19:33:29.883Z,5.11
2022-12-23T19:35:57.097Z,5.25
2022-12-23T19:38:26.508Z,5.26
2022-12-23T19:40:59.074Z,5.25
2022-12-23T19:43:28.412Z,5.31
2022-12-23T19:46:01.361Z,5.30
2022-12-23T19:48:30.289Z,5.26
2022-12-23T19:51:04.346Z,5.18
2022-12-23T19:53:32.325Z,5.25
2022-12-23T19:56:21.480Z,5.22
2022-12-23T19:58:50.167Z,5.29
2022-12-23T20:01:25.718Z,5.30
2022-12-23T20:03:55.411Z,5.23
2022-12-23T20:06:33.418Z,5.22
2022-12-23T20:09:04.911Z,5.15
2022-12-23T20:11:47.386Z,5.20
2022-12-23T20:14:21.988Z,5.13
2022-12-23T20:16:51.555Z,5.19
2022-12-23T20:19:18.714Z,5.17
2022-12-23T20:21:47.007Z,5.12
2022-12-23T20:24:16.194Z,5.06
2022-12-23T20:26:43.876Z,5.11
2022-12-23T20:29:11.675Z,4.98
2022-12-23T20:31:39.561Z,5.06
2022-12-23T20:34:11.926Z,5.10
2022-12-23T20:36:45.523Z,5.07
2022-12-23T20:39:13.149Z,5.02
2022-12-23T20:41:42.959Z,4.92
2022-12-23T20:46:59.829Z,4.88
2022-12-23T20:49:27.255Z,4.90
2022-12-23T20:51:54.480Z,4.94
2022-12-23T20:54:27.907Z,4.94
2022-12-23T20:56:59.419Z,4.93
2022-12-23T20:59:33.503Z,4.90
2022-12-23T21:02:01.360Z,4.93
2022-12-23T21:04:28.894Z,4.91
2022-12-23T21:06:56.249Z,4.94
2022-12-23T21:09:23.683Z,4.93
2022-12-23T21:11:51.121Z,4.92
2022-12-23T21:14:20.714Z,4.84
2022-12-23T21:16:48.271Z,4.87
2022-12-23T21:19:20.755Z,4.97
2022-12-23T21:21:54.144Z,5.06
2022-12-23T21:24:21.727Z,5.01
2022-12-23T21:26:56.426Z,5.08
2022-12-23T21:29:25.409Z,5.10
2022-12-23T21:31:55.439Z,5.12
2022-12-23T21:34:22.805Z,5.16
2022-12-23T21:36:50.566Z,5.21
2022-12-23T21:39:17.848Z,5.26
2022-12-23T21:41:46.202Z,5.29
2022-12-23T21:44:16.731Z,5.23
2022-12-23T21:46:43.929Z,5.16
2022-12-23T21:49:11.711Z,5.40
2022-12-23T21:51:40.663Z,5.41
2022-12-23T21:54:11.331Z,5.32
2022-12-23T21:56:41.383Z,5.30
2022-12-23T21:59:15.018Z,5.22
2022-12-23T22:01:43.926Z,5.18
2022-12-23T22:04:11.909Z,5.20
2022-12-23T22:06:44.080Z,5.16
2022-12-23T22:09:15.412Z,5.11
2022-12-23T22:11:43.411Z,5.09
2022-12-23T22:14:13.830Z,5.13
2022-12-23T22:16:41.123Z,5.10
2022-12-23T22:19:09.793Z,5.07
2022-12-23T22:21:40.008Z,5.01
2022-12-23T22:24:07.958Z,5.09
2022-12-23T22:26:36.200Z,5.13
2022-12-23T22:29:06.074Z,5.12
2022-12-23T22:31:39.403Z,5.16
2022-12-23T22:34:13.856Z,5.18
2022-12-23T22:36:42.556Z,5.17
2022-12-23T22:39:16.096Z,5.21
2022-12-23T22:41:47.537Z,5.21
2022-12-23T22:44:17.104Z,5.23
2022-12-23T22:46:44.531Z,5.23
2022-12-23T22:49:13.819Z,5.30
2022-12-23T22:51:42.273Z,5.30
2022-12-23T22:54:11.074Z,5.26
2022-12-23T22:56:38.505Z,5.26
2022-12-23T22:59:07.070Z,5.25
2022-12-23T23:01:36.453Z,5.33
2022-12-23T23:04:05.289Z,5.34
2022-12-23T23:06:38.266Z,5.38
2022-12-23T23:09:13.094Z,5.38
2022-12-23T23:11:41.508Z,5.32
2022-12-23T23:14:18.943Z,5.26
2022-12-23T23:16:46.347Z,5.36
2022-12-23T23:19:15.391Z,5.29
2022-12-23T23:21:42.841Z,5.37
2022-12-23T23:24:12.309Z,5.37
2022-12-23T23:26:39.714Z,5.40
2022-12-23T23:29:07.288Z,5.46
2022-12-23T23:31:43.356Z,5.53
2022-12-23T23:34:12.623Z,5.57
2022-12-23T23:36:40.475Z,5.55
2022-12-23T23:39:08.412Z,5.58
2022-12-23T23:41:36.054Z,5.52
2022-12-23T23:44:03.316Z,5.58
2022-12-23T23:46:32.087Z,5.42
2022-12-23T23:48:59.335Z,5.58
2022-12-23T23:51:26.502Z,5.48
2022-12-23T23:53:53.488Z,5.42
2022-12-23T23:56:25.414Z,5.51
2022-12-23T23:58:53.403Z,5.49
